Time;durP1;ratioP1;P1;durP2;ratioP2;P2;SDS_P1;SDS_P2;PMS_P1;PMS_P2;Temp;Humidity;BMP_temperature;BMP_pressure;BME280_temperature;BME280_humidity;BME280_pressure;Samples;Min_cycle;Max_cycle;Signal;HPM_P1;HPM_P2
2021/07/01 00:02:01;;;;;;;3.55;1.40;;;13.80;99.90;;;;;;5051540;28;20132;-76
2021/07/01 00:04:29;;;;;;;3.60;1.30;;;13.70;99.90;;;;;;5063339;28;20041;-75
2021/07/01 00:06:56;;;;;;;3.30;1.20;;;13.70;99.90;;;;;;5064473;28;20072;-78
2021/07/01 00:09:25;;;;;;;2.83;1.10;;;13.70;99.90;;;;;;5063925;28;20104;-77
2021/07/01 00:11:55;;;;;;;3.22;1.20;;;13.70;99.90;;;;;;5052808;28;20505;-77
2021/07/01 00:14:23;;;;;;;2.83;1.20;;;13.70;99.90;;;;;;5053055;28;20193;-75
2021/07/01 00:16:53;;;;;;;2.40;1.20;;;13.70;99.90;;;;;;5052763;28;20063;-79
2021/07/01 00:19:22;;;;;;;2.25;1.20;;;13.70;99.90;;;;;;5047203;28;20124;-75
2021/07/01 00:21:49;;;;;;;2.88;1.30;;;13.70;99.90;;;;;;5052850;28;20048;-75
2021/07/01 00:24:16;;;;;;;3.63;1.23;;;13.70;99.90;;;;;;5051044;28;20124;-76
2021/07/01 00:26:43;;;;;;;2.55;1.08;;;13.70;99.90;;;;;;5052644;28;20131;-77
2021/07/01 00:29:10;;;;;;;2.75;1.30;;;13.80;99.90;;;;;;5050071;28;20124;-78
2021/07/01 00:31:37;;;;;;;2.55;1.25;;;13.80;99.90;;;;;;5052608;28;20554;-77
2021/07/01 00:34:06;;;;;;;3.05;1.20;;;13.80;99.90;;;;;;5052444;28;20522;-78
2021/07/01 00:36:33;;;;;;;2.70;1.23;;;13.80;99.90;;;;;;5052793;28;20459;-78
2021/07/01 00:39:00;;;;;;;4.13;1.45;;;13.80;99.90;;;;;;5052629;28;20127;-76
2021/07/01 00:41:27;;;;;;;2.35;1.13;;;13.70;99.90;;;;;;5052442;28;20123;-77
2021/07/01 00:43:54;;;;;;;2.95;1.23;;;13.80;99.90;;;;;;5052954;28;20080;-77
2021/07/01 00:46:21;;;;;;;2.95;1.17;;;13.80;99.90;;;;;;5052008;28;20049;-77
2021/07/01 00:48:48;;;;;;;3.08;1.20;;;13.70;99.90;;;;;;5050811;28;20124;-78
2021/07/01 00:51:17;;;;;;;2.20;1.10;;;13.70;99.90;;;;;;5052006;28;20143;-76
2021/07/01 00:53:45;;;;;;;2.28;1.20;;;13.70;99.90;;;;;;5034624;28;20063;-75
2021/07/01 00:56:14;;;;;;;3.05;1.20;;;13.70;99.90;;;;;;5051024;28;20139;-77
2021/07/01 00:58:41;;;;;;;3.80;1.20;;;13.70;99.90;;;;;;5062576;28;20064;-75
2021/07/01 01:01:09;;;;;;;2.60;1.30;;;13.80;99.90;;;;;;5063967;28;20080;-78
2021/07/01 01:03:38;;;;;;;2.58;1.20;;;13.80;99.90;;;;;;5063221;28;20077;-77
2021/07/01 01:06:07;;;;;;;3.83;1.23;;;13.90;99.90;;;;;;5063657;28;20403;-78
2021/07/01 01:08:36;;;;;;;3.50;1.15;;;13.90;99.90;;;;;;5062732;28;20084;-76
2021/07/01 01:11:03;;;;;;;2.38;1.20;;;13.90;99.90;;;;;;5063207;28;20081;-75
2021/07/01 01:13:30;;;;;;;4.30;1.20;;;13.80;99.90;;;;;;5050685;28;20124;-77
2021/07/01 01:15:59;;;;;;;1.77;1.00;;;13.80;99.90;;;;;;5050983;28;20076;-75
2021/07/01 01:18:27;;;;;;;2.08;1.10;;;13.80;99.90;;;;;;5047171;28;20120;-77
2021/07/01 01:20:56;;;;;;;2.92;1.30;;;13.80;99.90;;;;;;5047876;28;20127;-77
2021/07/01 01:23:26;;;;;;;2.88;1.02;;;13.80;99.90;;;;;;5052470;28;20144;-78
2021/07/01 01:25:56;;;;;;;3.72;1.20;;;13.80;99.90;;;;;;5052347;28;20076;-78
2021/07/01 01:28:23;;;;;;;2.78;1.20;;;13.80;99.90;;;;;;5053156;28;20132;-79
2021/07/01 01:30:50;;;;;;;2.75;1.27;;;13.80;99.90;;;;;;5059892;28;20128;-78
2021/07/01 01:33:17;;;;;;;2.00;1.00;;;13.80;99.90;;;;;;5054738;28;20577;-78
2021/07/01 01:35:44;;;;;;;2.50;1.25;;;13.80;99.90;;;;;;5063062;28;20140;-77
2021/07/01 01:38:13;;;;;;;2.40;1.17;;;13.80;99.90;;;;;;5066985;28;20076;-77
2021/07/01 01:40:44;;;;;;;1.95;1.02;;;13.80;99.90;;;;;;5067107;28;20045;-75
2021/07/01 01:43:13;;;;;;;1.75;1.00;;;13.80;99.90;;;;;;5067943;28;20049;-77
2021/07/01 01:45:41;;;;;;;3.35;1.48;;;13.80;99.90;;;;;;5055942;28;20045;-78
2021/07/01 01:48:09;;;;;;;2.58;1.10;;;13.80;99.90;;;;;;5055391;28;20092;-78
2021/07/01 01:50:36;;;;;;;2.90;1.20;;;13.90;99.90;;;;;;5048876;28;20084;-77
2021/07/01 01:53:04;;;;;;;4.53;1.35;;;13.90;99.90;;;;;;5055926;28;20574;-78
2021/07/01 01:55:31;;;;;;;3.38;1.50;;;13.90;99.90;;;;;;5048187;28;20132;-78
2021/07/01 01:58:00;;;;;;;3.95;1.40;;;13.90;99.90;;;;;;5055918;28;20084;-77
2021/07/01 02:00:28;;;;;;;2.38;1.20;;;13.80;99.90;;;;;;5055215;28;20144;-76
2021/07/01 02:02:56;;;;;;;2.50;1.25;;;13.90;99.90;;;;;;5051809;28;20045;-77
2021/07/01 02:05:23;;;;;;;2.55;1.25;;;13.90;99.90;;;;;;5055619;28;20076;-75
2021/07/01 02:07:51;;;;;;;2.72;1.20;;;13.90;99.90;;;;;;5056025;28;20137;-76
2021/07/01 02:10:22;;;;;;;2.40;1.20;;;13.90;99.90;;;;;;5055560;28;20128;-74
2021/07/01 02:12:49;;;;;;;3.22;1.30;;;13.90;99.90;;;;;;5055607;28;20133;-76
2021/07/01 02:15:21;;;;;;;2.95;1.25;;;14.00;99.90;;;;;;5050834;28;20453;-75
2021/07/01 02:17:49;;;;;;;2.80;1.40;;;14.00;99.90;;;;;;5049991;28;20055;-77
2021/07/01 02:20:19;;;;;;;3.50;1.50;;;14.00;99.90;;;;;;5046075;28;20414;-78
2021/07/01 02:22:47;;;;;;;2.70;1.30;;;14.00;99.90;;;;;;5053475;28;20434;-77
2021/07/01 02:25:15;;;;;;;2.60;1.20;;;14.00;99.90;;;;;;5053402;28;20461;-75
2021/07/01 02:27:43;;;;;;;2.50;1.20;;;14.00;99.90;;;;;;5054476;28;20131;-77
2021/07/01 02:30:13;;;;;;;2.67;1.20;;;14.00;99.90;;;;;;5054903;28;20128;-76
2021/07/01 02:32:42;;;;;;;2.78;1.20;;;13.90;99.90;;;;;;5054991;28;20072;-77
2021/07/01 02:35:11;;;;;;;3.13;1.33;;;14.00;99.90;;;;;;5054925;28;20124;-78
2021/07/01 02:37:40;;;;;;;3.75;1.33;;;13.90;99.90;;;;;;5054400;28;20136;-76
2021/07/01 02:40:12;;;;;;;2.55;1.30;;;13.90;99.90;;;;;;5054688;28;20140;-78
2021/07/01 02:42:39;;;;;;;2.80;1.30;;;13.90;99.90;;;;;;5055312;28;20076;-78
2021/07/01 02:45:08;;;;;;;2.60;1.40;;;13.90;99.90;;;;;;5053990;28;20128;-77
2021/07/01 02:47:36;;;;;;;2.28;1.23;;;13.90;99.90;;;;;;5055303;28;20128;-77
2021/07/01 02:50:07;;;;;;;2.90;1.40;;;13.90;99.90;;;;;;5050239;28;20144;-77
2021/07/01 02:52:34;;;;;;;2.72;1.38;;;13.90;99.90;;;;;;5035743;28;20131;-76
2021/07/01 02:55:01;;;;;;;3.08;1.33;;;13.90;99.90;;;;;;5054308;28;20128;-76
2021/07/01 02:57:28;;;;;;;2.63;1.30;;;13.90;99.90;;;;;;5046179;28;20068;-76
2021/07/01 02:59:55;;;;;;;3.20;1.52;;;14.00;99.90;;;;;;5054171;28;20120;-78
2021/07/01 03:02:22;;;;;;;2.65;1.33;;;14.00;99.90;;;;;;5053487;28;20136;-75
2021/07/01 03:04:49;;;;;;;2.85;1.30;;;14.00;99.90;;;;;;5052915;28;20139;-77
2021/07/01 03:07:18;;;;;;;2.85;1.52;;;14.00;99.90;;;;;;5052481;28;20057;-77
2021/07/01 03:09:45;;;;;;;3.63;1.60;;;14.00;99.90;;;;;;5051542;28;20048;-77
2021/07/01 03:12:12;;;;;;;3.10;1.40;;;14.00;99.90;;;;;;5050302;28;20043;-77
2021/07/01 03:14:39;;;;;;;3.50;1.50;;;14.00;99.90;;;;;;5052441;28;20569;-78
2021/07/01 03:17:06;;;;;;;3.17;1.50;;;13.90;99.90;;;;;;5051668;28;20053;-77
2021/07/01 03:19:33;;;;;;;3.33;1.48;;;14.00;99.90;;;;;;5050949;28;20076;-77
2021/07/01 03:22:00;;;;;;;3.38;1.60;;;14.00;99.90;;;;;;5051079;28;20075;-78
2021/07/01 03:24:29;;;;;;;3.00;1.60;;;14.00;99.90;;;;;;5049986;28;20138;-77
2021/07/01 03:26:59;;;;;;;3.35;1.33;;;14.00;99.90;;;;;;5055473;28;20113;-78
2021/07/01 03:29:26;;;;;;;3.63;1.30;;;14.00;99.90;;;;;;5055753;28;20048;-77
2021/07/01 03:31:53;;;;;;;2.70;1.30;;;14.00;99.90;;;;;;5055571;28;20128;-79
2021/07/01 03:34:20;;;;;;;3.00;1.25;;;14.00;99.90;;;;;;5051477;28;20495;-76
2021/07/01 03:36:48;;;;;;;3.60;1.30;;;14.00;99.90;;;;;;5051887;28;20120;-79
2021/07/01 03:39:15;;;;;;;3.33;1.67;;;14.10;99.90;;;;;;5050424;28;20051;-77
2021/07/01 03:41:43;;;;;;;2.90;1.42;;;14.10;99.90;;;;;;5050825;28;20471;-78
2021/07/01 03:44:11;;;;;;;3.90;1.30;;;14.10;99.90;;;;;;5051324;28;20136;-76
2021/07/01 03:46:41;;;;;;;3.42;1.55;;;14.10;99.90;;;;;;5051664;28;20147;-76
2021/07/01 03:49:08;;;;;;;3.60;1.67;;;14.10;99.90;;;;;;5050335;28;20064;-77
2021/07/01 03:51:35;;;;;;;3.35;1.42;;;14.10;99.90;;;;;;5052905;28;20139;-75
2021/07/01 03:54:03;;;;;;;2.30;1.20;;;14.10;99.90;;;;;;5051375;28;20120;-78
2021/07/01 03:56:40;;;;;;;2.70;1.50;;;14.10;99.90;;;;;;5048121;28;20045;-76
2021/07/01 03:59:10;;;;;;;3.28;1.40;;;14.10;99.90;;;;;;5051160;28;20060;-77
2021/07/01 04:01:38;;;;;;;3.40;1.65;;;14.10;99.90;;;;;;5050031;28;20056;-77
2021/07/01 04:04:06;;;;;;;3.28;1.45;;;14.10;99.90;;;;;;5053014;28;20461;-77
2021/07/01 04:06:33;;;;;;;3.72;1.60;;;14.10;99.90;;;;;;5050565;28;20120;-77
2021/07/01 04:09:00;;;;;;;3.75;1.70;;;14.10;99.90;;;;;;5050960;28;20053;-78
2021/07/01 04:11:27;;;;;;;3.60;1.50;;;14.10;99.90;;;;;;5052609;28;20095;-80
2021/07/01 04:13:54;;;;;;;4.35;1.40;;;14.10;99.90;;;;;;5053026;28;20135;-77
2021/07/01 04:16:23;;;;;;;3.83;1.50;;;14.10;99.90;;;;;;5053177;28;20087;-78
2021/07/01 04:18:50;;;;;;;2.47;1.40;;;14.10;99.90;;;;;;5051814;28;20569;-79
2021/07/01 04:21:18;;;;;;;4.68;1.58;;;14.10;99.90;;;;;;5053045;28;20132;-77
2021/07/01 04:23:45;;;;;;;3.70;1.40;;;14.10;99.90;;;;;;5051864;28;20095;-79
2021/07/01 04:26:13;;;;;;;3.20;1.58;;;14.10;99.90;;;;;;5052751;28;20137;-76
2021/07/01 04:28:40;;;;;;;2.85;1.42;;;14.10;99.90;;;;;;5035272;28;20551;-79
2021/07/01 04:31:07;;;;;;;3.78;1.45;;;14.10;99.90;;;;;;5048539;28;20161;-80
2021/07/01 04:33:35;;;;;;;3.05;1.38;;;14.10;99.90;;;;;;5053268;28;20432;-79
2021/07/01 04:36:02;;;;;;;4.22;1.35;;;14.10;99.90;;;;;;5053335;28;20458;-77
2021/07/01 04:38:29;;;;;;;2.88;1.30;;;14.10;99.90;;;;;;5053387;28;20139;-80
2021/07/01 04:40:56;;;;;;;3.55;1.60;;;14.10;99.90;;;;;;5054033;28;20095;-77
2021/07/01 04:43:23;;;;;;;3.80;1.70;;;14.10;99.90;;;;;;5053649;28;20468;-79
2021/07/01 04:45:51;;;;;;;3.53;1.38;;;14.10;99.90;;;;;;5053555;28;20139;-80
2021/07/01 04:48:18;;;;;;;4.80;1.55;;;14.10;99.90;;;;;;5054092;28;20116;-78
2021/07/01 04:50:46;;;;;;;3.15;1.70;;;14.10;99.90;;;;;;5060324;28;20073;-78
2021/07/01 04:53:13;;;;;;;4.63;1.52;;;14.10;99.90;;;;;;5055795;28;20129;-79
2021/07/01 04:55:40;;;;;;;2.83;1.50;;;14.10;99.90;;;;;;5061028;28;20447;-80
2021/07/01 04:58:07;;;;;;;3.40;1.50;;;14.10;99.90;;;;;;5063176;28;20123;-79
2021/07/01 05:00:35;;;;;;;3.10;1.63;;;14.20;99.90;;;;;;5062994;28;20473;-79
2021/07/01 05:03:03;;;;;;;3.88;1.52;;;14.20;99.90;;;;;;5058624;28;20049;-79
2021/07/01 05:05:30;;;;;;;3.30;1.70;;;14.20;99.90;;;;;;5053430;28;20202;-77
2021/07/01 05:07:58;;;;;;;4.40;1.60;;;14.30;99.90;;;;;;5053794;28;20565;-77
2021/07/01 05:10:25;;;;;;;3.15;1.60;;;14.30;99.90;;;;;;5064567;28;20569;-77
2021/07/01 05:12:52;;;;;;;2.85;1.45;;;14.20;99.90;;;;;;5052955;28;20136;-77
2021/07/01 05:15:19;;;;;;;3.15;1.58;;;14.20;99.90;;;;;;5052927;28;20136;-78
2021/07/01 05:17:46;;;;;;;4.10;1.80;;;14.30;99.90;;;;;;5053060;28;20059;-76
2021/07/01 05:20:14;;;;;;;3.92;1.80;;;14.30;99.90;;;;;;5052645;28;20065;-78
2021/07/01 05:22:41;;;;;;;2.85;1.58;;;14.30;99.90;;;;;;5052732;28;20087;-76
2021/07/01 05:25:12;;;;;;;3.88;1.67;;;14.30;99.90;;;;;;5053213;28;20076;-79
2021/07/01 05:27:39;;;;;;;4.40;1.70;;;14.30;99.90;;;;;;5053170;28;20139;-77
2021/07/01 05:30:07;;;;;;;3.22;1.60;;;14.40;99.90;;;;;;5052927;28;20120;-78
2021/07/01 05:32:34;;;;;;;3.38;1.80;;;14.40;99.90;;;;;;5053255;28;20076;-78
2021/07/01 05:35:01;;;;;;;3.78;1.90;;;14.40;99.90;;;;;;5051578;28;20049;-80
2021/07/01 05:37:28;;;;;;;3.50;1.60;;;14.50;99.90;;;;;;5052644;28;20140;-77
2021/07/01 05:39:55;;;;;;;3.22;1.80;;;14.50;99.90;;;;;;5035010;28;20128;-78
2021/07/01 05:42:24;;;;;;;3.45;1.40;;;14.60;99.90;;;;;;5053035;28;20140;-78
2021/07/01 05:44:51;;;;;;;3.50;1.80;;;14.60;99.90;;;;;;5052852;28;20131;-79
2021/07/01 05:47:18;;;;;;;3.33;1.75;;;14.60;99.90;;;;;;5052653;28;20141;-79
2021/07/01 05:49:45;;;;;;;3.20;1.60;;;14.70;99.90;;;;;;5052529;28;20088;-78
2021/07/01 05:52:14;;;;;;;3.65;1.70;;;14.70;99.90;;;;;;5052451;28;20124;-78
2021/07/01 05:54:52;;;;;;;3.00;1.65;;;14.80;99.90;;;;;;5052779;28;20045;-78
2021/07/01 05:57:19;;;;;;;3.10;1.70;;;14.80;99.90;;;;;;5034505;28;20053;-77
2021/07/01 05:59:48;;;;;;;3.17;1.50;;;14.90;99.90;;;;;;5033775;28;20133;-80
2021/07/01 06:02:15;;;;;;;3.30;1.70;;;14.90;99.90;;;;;;5033710;28;20563;-77
2021/07/01 06:04:42;;;;;;;3.90;1.52;;;14.90;99.90;;;;;;5034273;28;20073;-78
2021/07/01 06:07:11;;;;;;;3.28;1.40;;;14.90;99.90;;;;;;5051137;28;20052;-79
2021/07/01 06:09:39;;;;;;;2.90;1.45;;;14.90;99.90;;;;;;5052539;28;20049;-78
2021/07/01 06:12:07;;;;;;;5.80;1.80;;;14.90;99.90;;;;;;5052162;28;20128;-80
2021/07/01 06:14:34;;;;;;;3.60;1.67;;;15.00;99.90;;;;;;5056639;28;20076;-79
2021/07/01 06:17:04;;;;;;;3.35;1.58;;;15.00;99.90;;;;;;5056312;28;20133;-78
2021/07/01 06:19:31;;;;;;;2.97;1.58;;;15.00;99.90;;;;;;5055587;28;20137;-77
2021/07/01 06:21:58;;;;;;;3.50;1.77;;;15.00;99.90;;;;;;5055910;28;20566;-79
2021/07/01 06:24:26;;;;;;;3.92;1.98;;;15.10;99.90;;;;;;5054673;28;20041;-80
2021/07/01 06:26:53;;;;;;;3.08;1.60;;;15.00;99.90;;;;;;5056283;28;20136;-78
2021/07/01 06:29:20;;;;;;;4.47;1.83;;;15.10;99.90;;;;;;5056293;28;20091;-79
2021/07/01 06:31:47;;;;;;;3.30;1.70;;;15.10;99.90;;;;;;5058356;28;20079;-77
2021/07/01 06:34:17;;;;;;;3.15;1.80;;;15.10;99.90;;;;;;5055565;28;20124;-79
2021/07/01 06:36:46;;;;;;;5.32;1.98;;;15.20;99.90;;;;;;5054431;28;20132;-79
2021/07/01 06:39:14;;;;;;;3.70;1.70;;;15.20;99.90;;;;;;5054752;28;20517;-77
2021/07/01 06:41:46;;;;;;;3.92;1.90;;;15.30;99.90;;;;;;5055891;28;20139;-79
2021/07/01 06:44:13;;;;;;;4.13;1.90;;;15.40;99.90;;;;;;5038243;28;20041;-80
2021/07/01 06:46:42;;;;;;;5.88;2.15;;;15.40;99.90;;;;;;5036587;28;20565;-75
2021/07/01 06:49:10;;;;;;;4.50;2.10;;;15.40;99.90;;;;;;5035319;28;20468;-79
2021/07/01 06:51:43;;;;;;;4.40;2.20;;;15.40;99.90;;;;;;5035429;28;20049;-80
2021/07/01 06:54:14;;;;;;;4.22;1.98;;;15.40;99.90;;;;;;5043348;28;20080;-79
2021/07/01 06:56:41;;;;;;;3.83;2.20;;;15.40;99.90;;;;;;5052751;28;20049;-77
2021/07/01 06:59:13;;;;;;;4.68;2.33;;;15.40;99.90;;;;;;5062964;28;20048;-78
2021/07/01 07:01:41;;;;;;;5.10;2.30;;;15.50;99.90;;;;;;5054910;28;20080;-79
2021/07/01 07:04:10;;;;;;;6.82;2.33;;;15.50;99.90;;;;;;5054927;28;20045;-79
2021/07/01 07:06:40;;;;;;;4.00;2.33;;;15.50;99.90;;;;;;5055402;28;20096;-77
2021/07/01 07:09:08;;;;;;;4.00;2.30;;;15.50;99.90;;;;;;5055878;28;20106;-80
2021/07/01 07:11:36;;;;;;;3.90;1.92;;;15.50;99.90;;;;;;5055267;28;20562;-78
2021/07/01 07:14:04;;;;;;;3.95;2.10;;;15.50;99.90;;;;;;5037338;28;20144;-79
2021/07/01 07:16:33;;;;;;;4.05;2.35;;;15.50;99.90;;;;;;5054473;28;20060;-78
2021/07/01 07:19:03;;;;;;;5.18;2.40;;;15.60;99.90;;;;;;5054631;28;20053;-79
2021/07/01 07:21:35;;;;;;;4.10;2.30;;;15.60;99.90;;;;;;5054857;28;20467;-79
2021/07/01 07:24:05;;;;;;;4.00;2.33;;;15.50;99.90;;;;;;5052881;28;20045;-79
2021/07/01 07:26:33;;;;;;;3.60;2.20;;;15.60;99.90;;;;;;5054977;28;20123;-77
2021/07/01 07:29:02;;;;;;;5.45;2.33;;;15.60;99.90;;;;;;5055006;28;20045;-80
2021/07/01 07:31:31;;;;;;;4.80;2.00;;;15.60;99.90;;;;;;5054290;28;20231;-79
2021/07/01 07:34:04;;;;;;;3.90;1.92;;;15.60;99.90;;;;;;5053081;28;20049;-80
2021/07/01 07:36:31;;;;;;;4.70;2.00;;;15.60;99.90;;;;;;5053808;28;20128;-78
2021/07/01 07:38:59;;;;;;;4.35;1.85;;;15.60;99.90;;;;;;5054184;28;20095;-79
2021/07/01 07:41:27;;;;;;;3.20;1.67;;;15.60;99.90;;;;;;5052920;28;20041;-78
2021/07/01 07:43:55;;;;;;;3.92;2.17;;;15.60;99.90;;;;;;5054253;28;20486;-79
2021/07/01 07:46:24;;;;;;;3.88;1.90;;;15.60;99.90;;;;;;5053958;28;20048;-78
2021/07/01 07:48:52;;;;;;;3.50;1.90;;;15.60;99.90;;;;;;5054488;28;20083;-79
2021/07/01 07:51:24;;;;;;;3.58;1.60;;;15.70;99.90;;;;;;5053791;28;20135;-78
2021/07/01 07:53:54;;;;;;;4.20;2.17;;;15.70;99.90;;;;;;5053335;28;20041;-80
2021/07/01 07:56:37;;;;;;;5.00;2.00;;;15.70;99.90;;;;;;5054840;28;20128;-80
2021/07/01 07:59:05;;;;;;;3.38;1.60;;;15.80;99.90;;;;;;5054315;28;20045;-79
2021/07/01 08:01:33;;;;;;;3.40;1.90;;;15.80;99.90;;;;;;5053702;28;20087;-77
2021/07/01 08:04:05;;;;;;;5.10;1.88;;;15.90;99.90;;;;;;5053338;28;20051;-78
2021/07/01 08:06:33;;;;;;;3.20;1.63;;;15.90;99.90;;;;;;5054004;28;20045;-80
2021/07/01 08:09:04;;;;;;;4.10;2.03;;;16.00;99.90;;;;;;5053804;28;20057;-77
2021/07/01 08:11:35;;;;;;;3.90;2.10;;;16.00;99.90;;;;;;5053922;28;20049;-79
2021/07/01 08:14:03;;;;;;;3.72;2.00;;;16.10;99.90;;;;;;5054087;28;20044;-80
2021/07/01 08:16:30;;;;;;;4.75;2.13;;;16.10;99.90;;;;;;5046420;28;20129;-79
2021/07/01 08:18:59;;;;;;;3.63;1.95;;;16.10;99.90;;;;;;5049905;28;20405;-80
2021/07/01 08:21:28;;;;;;;3.92;2.00;;;16.10;99.90;;;;;;5053929;28;20041;-80
2021/07/01 08:23:56;;;;;;;4.15;2.15;;;16.10;99.90;;;;;;5053624;28;20133;-78
2021/07/01 08:26:25;;;;;;;4.30;2.30;;;16.20;99.90;;;;;;5053648;28;20136;-79
2021/07/01 08:28:54;;;;;;;3.65;2.10;;;16.20;99.90;;;;;;5053496;28;20076;-80
2021/07/01 08:31:22;;;;;;;4.82;2.30;;;16.20;99.90;;;;;;5053450;28;20049;-79
2021/07/01 08:33:50;;;;;;;3.85;2.10;;;16.20;99.90;;;;;;5053425;28;20041;-77
2021/07/01 08:36:20;;;;;;;3.42;1.90;;;16.20;99.90;;;;;;5053963;28;20447;-78
2021/07/01 08:38:51;;;;;;;3.65;1.88;;;16.20;99.90;;;;;;5056592;28;20049;-79
2021/07/01 08:41:20;;;;;;;4.13;2.10;;;16.20;99.90;;;;;;5055856;28;20049;-77
2021/07/01 08:43:55;;;;;;;3.33;1.80;;;16.20;99.90;;;;;;5055821;28;20113;-77
2021/07/01 08:46:27;;;;;;;4.15;1.95;;;16.20;99.90;;;;;;5053268;28;20133;-77
2021/07/01 08:49:07;;;;;;;3.95;2.17;;;16.20;99.90;;;;;;5053367;28;20584;-77
2021/07/01 08:51:39;;;;;;;3.28;1.77;;;16.10;99.90;;;;;;5053032;28;20053;-76
2021/07/01 08:54:29;;;;;;;4.10;2.10;;;16.20;99.90;;;;;;5053082;28;20049;-78
2021/07/01 08:56:58;;;;;;;3.25;1.90;;;16.10;99.90;;;;;;5051873;28;20487;-78
2021/07/01 08:59:37;;;;;;;3.75;1.80;;;16.10;99.90;;;;;;5052860;28;20053;-77
2021/07/01 09:02:11;;;;;;;4.28;1.80;;;16.10;99.90;;;;;;5052685;28;20045;-80
2021/07/01 09:04:49;;;;;;;3.20;1.70;;;16.00;99.90;;;;;;5052661;28;20140;-80
2021/07/01 09:07:22;;;;;;;3.53;1.70;;;16.00;99.90;;;;;;5052727;28;20102;-77
2021/07/01 09:09:56;;;;;;;3.20;1.90;;;16.00;99.90;;;;;;5052670;28;20045;-79
2021/07/01 09:12:25;;;;;;;3.08;1.60;;;16.10;99.90;;;;;;5052948;28;20049;-79
2021/07/01 09:14:58;;;;;;;3.40;1.80;;;16.10;99.90;;;;;;5052929;28;20128;-78
2021/07/01 09:17:29;;;;;;;3.55;1.70;;;16.00;99.90;;;;;;5053002;28;20136;-79
2021/07/01 09:19:57;;;;;;;4.03;1.80;;;16.00;99.90;;;;;;5052543;28;20135;-79
2021/07/01 09:22:26;;;;;;;3.67;1.42;;;16.10;99.90;;;;;;5042594;28;20473;-78
2021/07/01 09:24:54;;;;;;;3.22;1.52;;;16.10;99.90;;;;;;5032602;28;20128;-78
2021/07/01 09:27:23;;;;;;;2.83;1.52;;;16.10;99.90;;;;;;5032588;28;20127;-78
2021/07/01 09:29:51;;;;;;;2.83;1.50;;;16.10;99.90;;;;;;5052816;28;20099;-78
2021/07/01 09:32:21;;;;;;;3.10;1.58;;;16.00;99.90;;;;;;5052770;28;20049;-77
2021/07/01 09:34:50;;;;;;;2.85;1.30;;;16.00;99.90;;;;;;5052513;28;20135;-79
2021/07/01 09:37:18;;;;;;;2.38;1.15;;;16.00;99.90;;;;;;5052792;28;20041;-80
2021/07/01 09:39:49;;;;;;;2.90;1.20;;;16.00;99.90;;;;;;5052240;28;20049;-79
2021/07/01 09:42:16;;;;;;;2.63;1.40;;;16.00;99.90;;;;;;5045532;28;20458;-77
2021/07/01 09:44:44;;;;;;;2.72;1.20;;;16.00;99.90;;;;;;5033027;28;20129;-77
2021/07/01 09:47:12;;;;;;;3.80;1.30;;;16.00;99.90;;;;;;5057687;28;20053;-76
2021/07/01 09:49:42;;;;;;;2.67;1.23;;;16.00;99.90;;;;;;5066590;28;20494;-77
2021/07/01 09:52:13;;;;;;;3.72;1.52;;;16.00;99.90;;;;;;5062381;28;20074;-79
2021/07/01 09:54:42;;;;;;;2.72;1.30;;;16.00;99.90;;;;;;5056186;28;20132;-79
2021/07/01 09:57:15;;;;;;;2.58;1.20;;;16.00;99.90;;;;;;5056287;28;20123;-79
2021/07/01 09:59:51;;;;;;;2.47;1.38;;;16.10;99.90;;;;;;5037983;28;20515;-79
2021/07/01 10:02:20;;;;;;;3.17;1.50;;;16.00;99.90;;;;;;5051447;28;20045;-81
2021/07/01 10:04:50;;;;;;;2.58;1.10;;;16.10;99.90;;;;;;5056753;28;20136;-80
2021/07/01 10:07:20;;;;;;;2.63;1.20;;;16.10;99.90;;;;;;5056456;28;20132;-79
2021/07/01 10:09:53;;;;;;;3.58;1.33;;;16.10;99.90;;;;;;5055853;28;20136;-78
2021/07/01 10:12:24;;;;;;;3.40;1.30;;;16.10;99.90;;;;;;5054196;28;20049;-80
2021/07/01 10:14:56;;;;;;;3.00;1.35;;;16.20;99.90;;;;;;5053161;28;20144;-79
2021/07/01 10:17:25;;;;;;;3.10;1.40;;;16.20;99.90;;;;;;5052875;28;20740;-79
2021/07/01 10:20:08;;;;;;;2.83;1.17;;;16.20;99.90;;;;;;5053197;28;20087;-79
2021/07/01 10:22:40;;;;;;;2.70;1.15;;;16.30;99.90;;;;;;5033320;28;20133;-79
2021/07/01 10:25:10;;;;;;;3.20;1.10;;;16.30;99.90;;;;;;5032932;28;20048;-75
2021/07/01 10:27:41;;;;;;;2.40;1.20;;;16.40;99.90;;;;;;5033420;28;20052;-76
2021/07/01 10:30:17;;;;;;;2.10;1.00;;;16.40;99.90;;;;;;5034754;28;20096;-77
2021/07/01 10:32:45;;;;;;;2.20;1.17;;;16.50;99.90;;;;;;5035598;28;20491;-81
2021/07/01 10:35:27;;;;;;;4.32;1.33;;;16.50;99.90;;;;;;5043496;28;20443;-79
2021/07/01 10:38:00;;;;;;;3.25;1.00;;;16.50;99.90;;;;;;5058805;28;20056;-87
2021/07/01 10:40:28;;;;;;;3.13;1.30;;;16.60;99.90;;;;;;5054539;28;20110;-89
2021/07/01 10:42:56;;;;;;;4.10;1.10;;;16.70;99.90;;;;;;5054122;28;20132;-87
2021/07/01 10:45:25;;;;;;;2.38;1.00;;;16.70;99.90;;;;;;5037205;28;20053;-87
2021/07/01 10:47:54;;;;;;;3.53;1.10;;;16.80;99.90;;;;;;5053993;28;20139;-83
2021/07/01 10:50:30;;;;;;;2.00;1.10;;;16.90;99.90;;;;;;5058197;28;20060;-89
2021/07/01 10:52:58;;;;;;;2.35;1.02;;;17.00;99.90;;;;;;5056281;28;20131;-83
2021/07/01 10:55:25;;;;;;;2.88;1.05;;;17.00;99.90;;;;;;5063033;28;20105;-79
2021/07/01 10:57:57;;;;;;;2.33;1.10;;;17.00;99.90;;;;;;5054205;28;20045;-79
2021/07/01 11:00:41;;;;;;;2.20;1.02;;;17.10;99.90;;;;;;5051939;28;20360;-78
2021/07/01 11:03:13;;;;;;;4.35;1.80;;;17.20;99.90;;;;;;5052224;28;20055;-75
2021/07/01 11:05:41;;;;;;;3.25;1.10;;;17.20;99.90;;;;;;5050083;28;20284;-77
2021/07/01 11:08:09;;;;;;;2.60;1.20;;;17.30;99.90;;;;;;5051503;28;20478;-76
2021/07/01 11:10:39;;;;;;;2.70;1.33;;;17.30;99.90;;;;;;5051894;28;20447;-77
2021/07/01 11:13:07;;;;;;;2.47;1.20;;;17.30;99.90;;;;;;5051611;28;20076;-76
2021/07/01 11:15:34;;;;;;;2.90;1.35;;;17.30;99.90;;;;;;5051738;28;20491;-79
2021/07/01 11:18:09;;;;;;;2.25;1.17;;;17.30;99.90;;;;;;5051383;28;20128;-76
2021/07/01 11:20:36;;;;;;;2.75;1.30;;;17.30;99.90;;;;;;5051801;28;20056;-78
2021/07/01 11:23:04;;;;;;;3.50;1.50;;;17.30;99.90;;;;;;5051339;28;20048;-77
2021/07/01 11:25:37;;;;;;;3.75;1.50;;;17.30;99.90;;;;;;5051722;28;20076;-77
2021/07/01 11:28:17;;;;;;;2.70;1.30;;;17.40;99.90;;;;;;5051692;28;20132;-77
2021/07/01 11:30:53;;;;;;;2.22;1.10;;;17.40;99.90;;;;;;5051222;28;20041;-76
2021/07/01 11:33:22;;;;;;;3.17;1.27;;;17.30;99.90;;;;;;5051556;28;20498;-78
2021/07/01 11:35:50;;;;;;;2.60;1.13;;;17.40;99.90;;;;;;5051489;28;20128;-76
2021/07/01 11:38:31;;;;;;;3.55;1.48;;;17.30;99.90;;;;;;5051258;28;20045;-77
2021/07/01 11:41:03;;;;;;;3.00;1.35;;;17.30;99.90;;;;;;5051607;28;20141;-77
2021/07/01 11:43:32;;;;;;;2.88;1.30;;;17.30;99.90;;;;;;5050822;28;20049;-77
2021/07/01 11:45:59;;;;;;;2.30;1.20;;;17.20;99.80;;;;;;5051327;28;20139;-79
2021/07/01 11:48:30;;;;;;;3.08;1.42;;;17.20;99.90;;;;;;5051809;28;20135;-77
2021/07/01 11:51:01;;;;;;;3.42;1.40;;;17.20;99.80;;;;;;5051069;28;20053;-77
2021/07/01 11:53:30;;;;;;;3.10;1.48;;;17.20;99.80;;;;;;5051342;28;20095;-76
2021/07/01 11:56:00;;;;;;;3.22;1.50;;;17.10;99.90;;;;;;5051151;28;20044;-77
2021/07/01 11:58:30;;;;;;;2.30;1.10;;;17.10;99.90;;;;;;5051331;28;20041;-76
2021/07/01 12:00:58;;;;;;;2.80;1.30;;;17.10;99.90;;;;;;5050445;28;20056;-77
2021/07/01 12:03:25;;;;;;;2.80;1.23;;;17.10;99.90;;;;;;5051138;28;20047;-76
2021/07/01 12:05:54;;;;;;;3.13;1.20;;;17.10;99.90;;;;;;5050956;28;20053;-78
2021/07/01 12:08:22;;;;;;;2.63;1.10;;;17.20;99.80;;;;;;5051009;28;20055;-77
2021/07/01 12:11:00;;;;;;;2.70;1.30;;;17.20;99.80;;;;;;5049309;28;20538;-75
2021/07/01 12:13:44;;;;;;;2.70;1.20;;;17.10;99.40;;;;;;5050923;28;20049;-78
2021/07/01 12:16:14;;;;;;;2.25;1.30;;;17.20;99.20;;;;;;5050642;28;20055;-77
2021/07/01 12:19:01;;;;;;;2.40;1.08;;;17.20;99.30;;;;;;5050458;28;20159;-76
2021/07/01 12:21:30;;;;;;;2.40;1.20;;;17.10;99.10;;;;;;5050491;28;20057;-77
2021/07/01 12:24:00;;;;;;;2.70;1.30;;;17.20;99.20;;;;;;5049966;28;20128;-77
2021/07/01 12:26:38;;;;;;;2.95;1.40;;;17.30;99.10;;;;;;5050440;28;20182;-77
2021/07/01 12:29:09;;;;;;;2.58;1.25;;;17.30;98.90;;;;;;5050572;28;20120;-77
2021/07/01 12:31:38;;;;;;;2.63;1.30;;;17.40;99.00;;;;;;5050189;28;20148;-79
2021/07/01 12:34:07;;;;;;;2.60;1.42;;;17.40;99.00;;;;;;5050309;28;20049;-77
2021/07/01 12:36:40;;;;;;;2.53;1.30;;;17.50;98.60;;;;;;5049815;28;20083;-76
2021/07/01 12:39:29;;;;;;;2.60;1.30;;;17.50;98.50;;;;;;5050604;28;20048;-75
2021/07/01 12:42:23;;;;;;;3.78;1.30;;;17.50;98.40;;;;;;5047287;28;20053;-77
2021/07/01 12:44:51;;;;;;;;;;;17.50;98.60;;;;;;5050305;28;20053;-76
2021/07/01 12:47:37;;;;;;;3.55;1.40;;;17.50;98.60;;;;;;5050178;28;19974;-77
2021/07/01 12:50:07;;;;;;;3.55;1.30;;;17.50;99.00;;;;;;5049502;28;20438;-76
2021/07/01 12:52:52;;;;;;;2.42;1.10;;;17.40;99.30;;;;;;5050185;28;20482;-74
2021/07/01 12:55:27;;;;;;;2.42;1.00;;;17.40;99.60;;;;;;5048888;28;20059;-77
2021/07/01 12:57:56;;;;;;;2.42;1.10;;;17.30;99.90;;;;;;5029430;28;20145;-78
2021/07/01 13:00:23;;;;;;;2.40;1.20;;;17.20;99.90;;;;;;5044713;28;20140;-76